createdAt,value
2018-08-11T00:00:42.162Z,16.30
2018-08-11T00:05:47.246Z,16.30
2018-08-11T00:10:51.534Z,16.30
2018-08-11T00:15:57.049Z,16.20
2018-08-11T00:21:00.958Z,16.30
2018-08-11T00:26:05.273Z,16.30
2018-08-11T00:31:09.658Z,16.30
2018-08-11T00:36:14.101Z,16.40
2018-08-11T00:41:18.406Z,16.40
2018-08-11T00:46:22.991Z,16.40
2018-08-11T00:51:26.949Z,16.40
2018-08-11T00:56:30.921Z,16.40
2018-08-11T01:01:34.933Z,16.40
2018-08-11T01:06:40.400Z,16.40
2018-08-11T01:11:44.494Z,16.40
2018-08-11T01:16:48.362Z,16.40
2018-08-11T01:21:52.446Z,16.40
2018-08-11T01:26:56.542Z,16.50
2018-08-11T01:32:03.461Z,16.40
2018-08-11T01:37:07.288Z,16.40
2018-08-11T01:42:11.240Z,16.40
2018-08-11T01:47:15.131Z,16.40
2018-08-11T01:52:19.107Z,16.60
2018-08-11T01:57:23.033Z,16.70
2018-08-11T02:02:27.158Z,16.70
2018-08-11T02:07:31.099Z,16.60
2018-08-11T02:12:35.105Z,16.60
2018-08-11T02:17:38.991Z,16.60
2018-08-11T02:22:44.203Z,16.60
2018-08-11T02:27:48.123Z,16.60
2018-08-11T02:32:52.100Z,16.60
2018-08-11T02:37:56.115Z,16.60
2018-08-11T02:43:00.120Z,16.70
2018-08-11T02:48:04.463Z,16.80
2018-08-11T02:53:08.244Z,16.90
2018-08-11T02:58:11.943Z,16.90
2018-08-11T03:03:15.663Z,16.90
2018-08-11T03:08:19.388Z,16.80
2018-08-11T03:13:24.823Z,16.40
2018-08-11T03:18:28.671Z,16.30
2018-08-11T03:23:32.532Z,16.00
2018-08-11T03:28:36.597Z,15.40
2018-08-11T03:33:40.539Z,14.90
2018-08-11T03:38:44.286Z,14.90
2018-08-11T03:43:48.056Z,14.80
2018-08-11T03:48:51.679Z,14.90
2018-08-11T03:53:55.311Z,14.50
2018-08-11T03:58:59.155Z,14.20
2018-08-11T04:04:02.804Z,14.00
2018-08-11T04:09:08.555Z,14.00
2018-08-11T04:14:12.174Z,13.70
2018-08-11T04:19:15.810Z,13.40
2018-08-11T04:24:19.463Z,13.30
2018-08-11T04:29:23.184Z,13.10
2018-08-11T04:34:26.833Z,13.20
2018-08-11T04:39:30.473Z,13.10
2018-08-11T04:44:34.118Z,13.10
2018-08-11T04:49:37.771Z,12.90
2018-08-11T04:54:41.432Z,12.90
2018-08-11T04:59:45.082Z,12.90
2018-08-11T05:04:48.746Z,12.90
2018-08-11T05:09:52.410Z,12.90
2018-08-11T05:14:56.125Z,12.90
2018-08-11T05:19:59.898Z,12.90
2018-08-11T05:25:03.690Z,12.80
2018-08-11T05:30:08.326Z,12.80
2018-08-11T05:35:12.145Z,12.90
2018-08-11T05:40:15.855Z,12.90
2018-08-11T05:45:19.489Z,12.90
2018-08-11T05:50:23.275Z,13.00
2018-08-11T05:55:26.973Z,13.10
2018-08-11T06:00:30.753Z,13.30
2018-08-11T06:05:34.587Z,13.50
2018-08-11T06:10:38.419Z,13.70
2018-08-11T06:15:42.280Z,13.80
2018-08-11T06:20:46.061Z,13.90
2018-08-11T06:25:49.722Z,14.00
2018-08-11T06:30:53.386Z,14.20
2018-08-11T06:35:57.054Z,14.30
2018-08-11T06:41:00.800Z,14.50
2018-08-11T06:46:04.534Z,14.70
2018-08-11T06:51:08.181Z,14.70
2018-08-11T06:56:11.848Z,14.70
2018-08-11T07:01:15.555Z,14.80
2018-08-11T07:06:19.259Z,15.10
2018-08-11T07:11:22.944Z,15.30
2018-08-11T07:16:26.598Z,15.30
2018-08-11T07:21:30.203Z,15.40
2018-08-11T07:27:58.297Z,15.60
2018-08-11T07:33:01.956Z,15.70
2018-08-11T07:38:05.806Z,16.00
2018-08-11T07:43:09.471Z,16.30
2018-08-11T07:48:13.092Z,16.20
2018-08-11T07:53:16.771Z,16.30
2018-08-11T07:58:20.885Z,16.10
2018-08-11T08:03:24.540Z,16.30
2018-08-11T08:08:28.175Z,16.20
2018-08-11T08:13:31.830Z,16.10
2018-08-11T08:18:35.455Z,15.90
2018-08-11T08:23:39.187Z,16.00
2018-08-11T08:28:43.025Z,16.40
2018-08-11T08:33:46.849Z,16.30
2018-08-11T08:38:50.654Z,16.30
2018-08-11T08:43:54.319Z,16.20
2018-08-11T08:48:57.998Z,16.60
2018-08-11T08:54:01.627Z,16.70
2018-08-11T08:59:05.344Z,16.90
2018-08-11T09:04:09.023Z,17.10
2018-08-11T09:09:13.111Z,17.30
2018-08-11T09:14:16.742Z,17.40
2018-08-11T09:19:20.476Z,17.30
2018-08-11T09:24:24.147Z,17.20
2018-08-11T09:29:27.796Z,17.30
2018-08-11T09:34:31.387Z,17.50
2018-08-11T09:39:35.055Z,17.80
2018-08-11T09:44:38.685Z,18.20
2018-08-11T09:49:42.470Z,18.10
2018-08-11T09:54:46.120Z,17.50
2018-08-11T09:59:49.754Z,17.60
2018-08-11T10:04:53.464Z,17.90
2018-08-11T10:09:57.159Z,18.00
2018-08-11T10:15:00.888Z,18.60
2018-08-11T10:20:04.747Z,18.60
2018-08-11T10:25:08.483Z,18.40
2018-08-11T10:30:12.612Z,18.60
2018-08-11T10:35:16.328Z,18.80
2018-08-11T10:40:20.066Z,18.90
2018-08-11T10:45:23.667Z,19.30
2018-08-11T10:50:27.301Z,19.00
2018-08-11T10:55:31.297Z,19.20
2018-08-11T11:00:34.978Z,19.30
2018-08-11T11:05:38.598Z,19.00
2018-08-11T11:10:42.305Z,19.00
2018-08-11T11:15:45.925Z,19.30
2018-08-11T11:20:49.590Z,19.80
2018-08-11T11:25:53.210Z,20.00
2018-08-11T11:30:56.878Z,20.40
2018-08-11T11:36:00.539Z,20.20
2018-08-11T11:41:04.294Z,20.70
2018-08-11T11:46:07.993Z,20.80
2018-08-11T11:51:11.803Z,20.90
2018-08-11T11:56:15.474Z,21.00
2018-08-11T12:01:19.162Z,20.80
2018-08-11T12:06:22.962Z,20.30
2018-08-11T12:11:27.087Z,20.00
2018-08-11T12:16:30.780Z,20.30
2018-08-11T12:21:34.591Z,20.90
2018-08-11T12:26:38.326Z,21.50
2018-08-11T12:31:42.067Z,23.30
2018-08-11T12:36:46.271Z,24.00
2018-08-11T12:41:49.982Z,23.60
2018-08-11T12:46:53.725Z,23.30
2018-08-11T12:51:57.806Z,23.60
2018-08-11T12:57:01.440Z,22.70
2018-08-11T13:02:06.598Z,22.50
2018-08-11T13:07:10.519Z,21.90
2018-08-11T13:12:14.370Z,23.20
2018-08-11T13:17:18.004Z,24.30
2018-08-11T13:22:21.744Z,23.90
2018-08-11T13:27:25.394Z,22.70
2018-08-11T13:32:29.028Z,21.60
2018-08-11T13:37:32.663Z,21.20
2018-08-11T13:42:36.357Z,21.60
2018-08-11T13:47:40.074Z,22.10
2018-08-11T13:52:44.347Z,22.40
2018-08-11T13:57:48.297Z,24.10
2018-08-11T14:02:52.787Z,23.60
2018-08-11T14:07:56.442Z,24.50
2018-08-11T14:13:00.191Z,22.80
2018-08-11T14:18:03.926Z,23.20
2018-08-11T14:23:07.904Z,25.40
2018-08-11T14:28:11.800Z,26.90
2018-08-11T14:33:15.769Z,27.50
2018-08-11T14:38:19.839Z,27.70
2018-08-11T14:43:24.041Z,28.00
2018-08-11T14:48:27.945Z,26.20
2018-08-11T14:53:31.588Z,26.20
2018-08-11T14:58:35.277Z,26.60
2018-08-11T15:03:38.939Z,24.10
2018-08-11T15:08:42.679Z,23.40
2018-08-11T15:13:46.389Z,22.70
2018-08-11T15:18:50.028Z,21.90
2018-08-11T15:23:53.689Z,22.10
2018-08-11T15:28:57.352Z,21.90
2018-08-11T15:34:01.039Z,22.40
2018-08-11T15:39:08.347Z,22.10
2018-08-11T15:44:11.992Z,21.80
2018-08-11T15:49:15.627Z,21.80
2018-08-11T15:54:20.015Z,22.00
2018-08-11T15:59:23.965Z,21.80
2018-08-11T16:04:27.751Z,21.90
2018-08-11T16:09:31.495Z,24.60
2018-08-11T16:14:35.456Z,26.30
2018-08-11T16:19:39.376Z,26.40
2018-08-11T16:24:43.051Z,25.60
2018-08-11T16:29:46.822Z,24.70
2018-08-11T16:34:50.817Z,24.10
2018-08-11T16:39:54.677Z,25.80
2018-08-11T16:44:58.986Z,25.70
2018-08-11T16:50:02.669Z,25.30
2018-08-11T16:55:06.463Z,24.60
2018-08-11T17:00:12.063Z,23.50
2018-08-11T17:05:15.789Z,25.00
2018-08-11T17:10:19.505Z,24.50
2018-08-11T17:15:23.169Z,24.90
2018-08-11T17:20:26.965Z,24.60
2018-08-11T17:25:30.706Z,24.10
2018-08-11T17:30:34.373Z,23.20
2018-08-11T17:35:38.872Z,22.40
2018-08-11T17:40:42.506Z,21.50
2018-08-11T17:45:46.187Z,20.90
2018-08-11T17:50:49.836Z,20.70
2018-08-11T17:55:53.475Z,20.70
2018-08-11T18:00:57.134Z,20.80
2018-08-11T18:06:00.769Z,20.80
2018-08-11T18:11:04.614Z,20.70
2018-08-11T18:16:08.473Z,20.40
2018-08-11T18:21:12.142Z,20.20
2018-08-11T18:26:15.802Z,20.00
2018-08-11T18:31:19.553Z,19.90
2018-08-11T18:36:23.474Z,19.70
2018-08-11T18:41:27.126Z,19.50
2018-08-11T18:46:30.759Z,19.40
2018-08-11T18:51:34.408Z,19.20
2018-08-11T18:56:38.042Z,19.00
2018-08-11T19:01:41.737Z,18.90
2018-08-11T19:06:45.385Z,18.70
2018-08-11T19:11:49.036Z,18.50
2018-08-11T19:16:52.699Z,18.40
2018-08-11T19:21:56.386Z,18.20
2018-08-11T19:27:00.387Z,18.00
2018-08-11T19:32:04.227Z,17.70
2018-08-11T19:37:07.959Z,17.50
2018-08-11T19:42:11.711Z,17.40
2018-08-11T19:47:15.589Z,17.20
2018-08-11T19:52:19.520Z,17.00
2018-08-11T19:57:24.121Z,16.80
2018-08-11T20:02:28.036Z,16.60
2018-08-11T20:07:31.878Z,16.50
2018-08-11T20:12:36.049Z,16.30
2018-08-11T20:17:40.230Z,16.20
2018-08-11T20:22:44.191Z,16.10
2018-08-11T20:27:47.974Z,15.90
2018-08-11T20:32:51.840Z,15.80
2018-08-11T20:37:55.761Z,15.60
2018-08-11T20:42:59.815Z,15.50
2018-08-11T20:48:03.714Z,15.40
2018-08-11T20:53:07.575Z,15.30
2018-08-11T20:58:11.329Z,15.20
2018-08-11T21:03:15.234Z,15.20
2018-08-11T21:08:19.045Z,15.10
2018-08-11T21:13:22.904Z,15.10
2018-08-11T21:18:26.869Z,15.10
2018-08-11T21:23:30.714Z,15.00
2018-08-11T21:28:34.377Z,14.80
2018-08-11T21:33:38.087Z,14.70
2018-08-11T21:38:41.751Z,14.70
2018-08-11T21:43:46.234Z,14.60
2018-08-11T21:48:49.935Z,14.50
2018-08-11T21:53:53.615Z,14.40
2018-08-11T21:58:57.330Z,14.20
2018-08-11T22:04:01.095Z,14.10
2018-08-11T22:09:08.300Z,14.00
2018-08-11T22:14:12.057Z,13.90
2018-08-11T22:19:15.753Z,13.80
2018-08-11T22:24:19.455Z,13.70
2018-08-11T22:29:23.181Z,13.60
2018-08-11T22:34:26.846Z,13.60
2018-08-11T22:39:30.545Z,13.60
2018-08-11T22:44:34.215Z,13.50
2018-08-11T22:49:37.884Z,13.40
2018-08-11T22:54:41.655Z,13.30
2018-08-11T22:59:45.349Z,13.30
2018-08-11T23:04:49.043Z,13.20
2018-08-11T23:09:52.737Z,13.10
2018-08-11T23:14:56.447Z,13.10
2018-08-11T23:20:00.087Z,13.00
2018-08-11T23:25:04.466Z,12.90
2018-08-11T23:30:10.924Z,12.90
2018-08-11T23:35:14.750Z,12.80
2018-08-11T23:40:18.714Z,12.70
2018-08-11T23:45:22.380Z,12.70
2018-08-11T23:50:26.048Z,12.70
2018-08-11T23:55:30.165Z,12.60
